createdAt,value
2022-10-17T00:00:24.069Z,93.66
2022-10-17T00:00:55.639Z,93.87
2022-10-17T00:01:27.191Z,93.80
2022-10-17T00:01:58.802Z,93.86
2022-10-17T00:02:30.376Z,93.83
2022-10-17T00:03:02.297Z,93.67
2022-10-17T00:03:35.827Z,93.89
2022-10-17T00:04:07.361Z,93.82
2022-10-17T00:04:38.912Z,93.58
2022-10-17T00:05:12.094Z,93.74
2022-10-17T00:05:46.170Z,93.83
2022-10-17T00:06:17.723Z,93.95
2022-10-17T00:06:49.263Z,93.73
2022-10-17T00:07:20.817Z,93.50
2022-10-17T00:07:53.761Z,93.41
2022-10-17T00:08:25.325Z,93.34
2022-10-17T00:08:56.862Z,93.41
2022-10-17T00:09:28.405Z,93.38
2022-10-17T00:09:59.972Z,93.30
2022-10-17T00:10:31.509Z,93.19
2022-10-17T00:11:07.769Z,93.14
2022-10-17T00:11:39.583Z,93.09
2022-10-17T00:12:11.335Z,93.01
2022-10-17T00:12:42.885Z,93.03
2022-10-17T00:13:14.416Z,93.26
2022-10-17T00:13:48.272Z,93.53
2022-10-17T00:14:19.821Z,93.45
2022-10-17T00:14:51.353Z,93.56
2022-10-17T00:15:23.067Z,93.43
2022-10-17T00:15:54.657Z,93.01
2022-10-17T00:16:32.838Z,92.76
2022-10-17T00:17:04.429Z,92.87
2022-10-17T00:17:36.293Z,92.74
2022-10-17T00:18:07.834Z,93.38
2022-10-17T00:18:39.411Z,93.48
2022-10-17T00:19:10.965Z,93.50
2022-10-17T00:19:42.697Z,93.52
2022-10-17T00:20:14.606Z,93.44
2022-10-17T00:20:46.293Z,93.51
2022-10-17T00:21:19.511Z,93.43
2022-10-17T00:21:51.083Z,93.47
2022-10-17T00:22:22.607Z,93.51
2022-10-17T00:22:54.186Z,93.53
2022-10-17T00:23:27.558Z,93.38
2022-10-17T00:24:00.188Z,93.19
2022-10-17T00:24:31.927Z,93.37
2022-10-17T00:25:03.779Z,93.54
2022-10-17T00:25:35.322Z,93.53
2022-10-17T00:26:06.865Z,93.52
2022-10-17T00:26:38.402Z,93.25
2022-10-17T00:27:09.907Z,93.22
2022-10-17T00:27:42.011Z,93.23
2022-10-17T00:28:15.038Z,93.49
2022-10-17T00:28:50.993Z,93.68
2022-10-17T00:29:22.609Z,93.49
2022-10-17T00:29:54.132Z,93.24
2022-10-17T00:30:25.831Z,93.19
2022-10-17T00:31:03.652Z,93.26
2022-10-17T00:31:35.736Z,93.46
2022-10-17T00:32:07.257Z,93.75
2022-10-17T00:32:39.235Z,93.58
2022-10-17T00:33:10.745Z,93.20
2022-10-17T00:33:43.932Z,93.29
2022-10-17T00:34:15.873Z,93.36
2022-10-17T00:34:47.436Z,93.51
2022-10-17T00:35:18.964Z,93.36
2022-10-17T00:35:50.502Z,93.29
2022-10-17T00:36:24.824Z,93.14
2022-10-17T00:36:57.514Z,93.45
2022-10-17T00:37:31.579Z,93.74
2022-10-17T00:38:03.162Z,93.61
2022-10-17T00:38:35.775Z,93.39
2022-10-17T00:39:07.309Z,93.31
2022-10-17T00:39:39.095Z,93.04
2022-10-17T00:40:10.838Z,92.86
2022-10-17T00:40:42.378Z,92.73
2022-10-17T00:41:17.043Z,92.86
2022-10-17T00:41:48.608Z,92.83
2022-10-17T00:42:20.163Z,93.05
2022-10-17T00:42:53.177Z,93.32
2022-10-17T00:43:24.894Z,93.44
2022-10-17T00:43:56.406Z,93.23
2022-10-17T00:44:30.959Z,93.09
2022-10-17T00:45:27.018Z,93.41
2022-10-17T00:45:58.583Z,93.54
2022-10-17T00:46:38.268Z,93.62
2022-10-17T00:47:17.048Z,93.89
2022-10-17T00:47:56.125Z,93.84
2022-10-17T00:48:27.822Z,93.82
2022-10-17T00:49:06.870Z,93.77
2022-10-17T00:49:38.812Z,93.80
2022-10-17T00:50:11.699Z,93.74
2022-10-17T00:50:46.388Z,93.91
2022-10-17T00:51:22.804Z,93.78
2022-10-17T00:52:03.754Z,93.78
2022-10-17T00:52:35.801Z,93.73
2022-10-17T00:53:09.504Z,93.86
2022-10-17T00:53:41.263Z,93.69
2022-10-17T00:54:16.247Z,93.79
2022-10-17T00:54:53.766Z,93.75
2022-10-17T00:55:30.839Z,93.70
2022-10-17T00:56:02.526Z,93.68
2022-10-17T00:56:34.754Z,93.42
2022-10-17T00:57:07.034Z,92.79
2022-10-17T00:57:39.707Z,92.48
2022-10-17T00:58:11.494Z,92.40
2022-10-17T00:58:43.065Z,92.47
2022-10-17T00:59:16.967Z,92.69
2022-10-17T00:59:52.688Z,93.00
2022-10-17T01:00:24.647Z,93.19
2022-10-17T01:00:56.175Z,93.45
2022-10-17T01:01:27.845Z,93.56
2022-10-17T01:02:19.658Z,93.43
2022-10-17T01:02:51.209Z,93.27
2022-10-17T01:03:23.419Z,93.16
2022-10-17T01:03:55.003Z,93.16
2022-10-17T01:04:26.741Z,93.64
2022-10-17T01:04:59.572Z,93.54
2022-10-17T01:05:31.103Z,93.42
2022-10-17T01:06:02.625Z,93.40
2022-10-17T01:06:34.145Z,93.20
2022-10-17T01:07:05.679Z,93.05
2022-10-17T01:07:39.031Z,93.01
2022-10-17T01:08:12.153Z,93.07
2022-10-17T01:08:43.932Z,93.24
2022-10-17T01:09:15.534Z,93.24
2022-10-17T01:09:47.544Z,93.15
2022-10-17T01:10:20.619Z,93.41
2022-10-17T01:11:01.566Z,93.77
2022-10-17T01:11:52.396Z,93.78
2022-10-17T01:12:41.655Z,93.73
2022-10-17T01:13:50.857Z,93.25
2022-10-17T01:14:47.236Z,93.55
2022-10-17T01:15:59.914Z,93.21
2022-10-17T01:17:14.932Z,92.82
2022-10-17T01:17:55.460Z,92.87
2022-10-17T01:18:51.556Z,93.37
2022-10-17T01:19:32.142Z,94.05
2022-10-17T01:20:25.282Z,93.72
2022-10-17T01:21:18.382Z,93.60
2022-10-17T01:22:00.868Z,93.73
2022-10-17T01:23:07.524Z,93.50
2022-10-17T01:23:50.967Z,93.35
2022-10-17T01:24:53.547Z,93.00
2022-10-17T01:25:49.369Z,93.51
2022-10-17T01:26:26.816Z,93.09
2022-10-17T01:27:19.558Z,93.06
2022-10-17T01:28:14.410Z,93.40
2022-10-17T01:28:48.558Z,93.58
2022-10-17T01:29:57.522Z,93.31
2022-10-17T01:30:47.915Z,93.07
2022-10-17T01:31:23.826Z,93.05
2022-10-17T01:32:01.184Z,93.09
2022-10-17T01:32:44.242Z,93.36
2022-10-17T01:33:21.555Z,93.07
2022-10-17T01:34:12.303Z,93.09
2022-10-17T01:34:59.910Z,93.42
2022-10-17T01:35:54.019Z,93.81
2022-10-17T01:36:37.468Z,93.73
2022-10-17T01:37:36.159Z,93.57
2022-10-17T01:38:16.565Z,93.24
2022-10-17T01:38:53.401Z,93.19
2022-10-17T01:39:29.975Z,93.11
2022-10-17T01:40:10.691Z,93.69
2022-10-17T01:40:53.806Z,93.99
2022-10-17T01:41:49.210Z,93.96
2022-10-17T01:42:43.969Z,93.60
2022-10-17T01:43:40.764Z,93.81
2022-10-17T01:44:29.152Z,94.39
2022-10-17T01:45:35.156Z,93.89
2022-10-17T01:46:26.992Z,93.95
2022-10-17T01:47:05.307Z,94.17
2022-10-17T01:47:38.112Z,94.09
2022-10-17T01:48:16.331Z,93.91
2022-10-17T01:48:47.864Z,93.68
2022-10-17T01:49:24.349Z,93.47
2022-10-17T01:50:00.940Z,93.30
2022-10-17T01:50:36.321Z,93.26
2022-10-17T01:51:27.590Z,93.34
2022-10-17T01:52:08.799Z,93.77
2022-10-17T01:52:45.479Z,93.74
2022-10-17T01:53:24.135Z,93.60
2022-10-17T01:54:02.281Z,93.47
2022-10-17T01:54:40.591Z,93.49
2022-10-17T01:55:20.493Z,93.41
2022-10-17T01:55:55.587Z,93.25
2022-10-17T01:56:29.945Z,93.26
2022-10-17T01:57:05.879Z,93.41
2022-10-17T01:57:42.754Z,93.46
2022-10-17T01:58:20.843Z,93.57
2022-10-17T01:59:00.730Z,93.33
2022-10-17T01:59:42.474Z,92.70
2022-10-17T02:01:07.457Z,92.68
2022-10-17T02:01:41.561Z,92.88
2022-10-17T02:02:16.930Z,92.91
2022-10-17T02:02:51.935Z,92.98
2022-10-17T02:03:25.529Z,93.04
2022-10-17T02:03:59.302Z,93.05
2022-10-17T02:04:31.110Z,93.14
2022-10-17T02:05:04.152Z,93.20
2022-10-17T02:05:39.334Z,93.03
2022-10-17T02:06:10.886Z,93.14
2022-10-17T02:06:42.402Z,93.33
2022-10-17T02:07:14.006Z,93.47
2022-10-17T02:07:45.510Z,93.54
2022-10-17T02:08:28.910Z,93.76
2022-10-17T02:09:00.429Z,93.61
2022-10-17T02:09:31.987Z,93.55
2022-10-17T02:10:15.881Z,93.62
2022-10-17T02:10:50.544Z,93.33
2022-10-17T02:11:24.739Z,93.56
2022-10-17T02:12:08.247Z,93.71
2022-10-17T02:12:50.544Z,93.64
2022-10-17T02:13:37.886Z,93.64
2022-10-17T02:14:31.912Z,93.44
2022-10-17T02:15:44.280Z,93.67
2022-10-17T02:16:40.238Z,93.80
2022-10-17T02:17:33.448Z,93.51
2022-10-17T02:18:20.064Z,93.39
2022-10-17T02:19:03.890Z,93.15
2022-10-17T02:19:54.354Z,93.41
2022-10-17T02:20:35.667Z,93.75
2022-10-17T02:21:11.423Z,93.93
2022-10-17T02:22:01.182Z,93.66
2022-10-17T02:22:43.889Z,93.82
2022-10-17T02:23:27.313Z,93.86
2022-10-17T02:24:32.711Z,94.38
2022-10-17T02:25:22.734Z,93.86
2022-10-17T02:26:12.048Z,94.07
2022-10-17T02:27:05.487Z,93.91
2022-10-17T02:27:39.603Z,93.92
2022-10-17T02:28:23.451Z,94.19
2022-10-17T02:29:04.499Z,94.31
2022-10-17T02:30:11.683Z,94.29
2022-10-17T02:30:53.285Z,94.25
2022-10-17T02:31:40.056Z,94.42
2022-10-17T02:32:25.971Z,94.39
2022-10-17T02:33:16.748Z,94.30
2022-10-17T02:34:02.666Z,93.86
2022-10-17T02:34:40.012Z,93.93
2022-10-17T02:35:14.464Z,94.04
2022-10-17T02:35:51.514Z,93.88
2022-10-17T02:36:29.021Z,93.85
2022-10-17T02:37:03.451Z,94.04
2022-10-17T02:37:36.456Z,94.07
2022-10-17T02:38:10.675Z,94.18
2022-10-17T02:38:44.461Z,94.20
2022-10-17T02:39:16.850Z,94.09
2022-10-17T02:39:50.664Z,94.10
2022-10-17T02:40:24.197Z,94.21
2022-10-17T02:40:56.441Z,94.45
2022-10-17T02:42:05.270Z,93.98
2022-10-17T02:42:37.699Z,93.84
2022-10-17T02:43:09.411Z,93.74
2022-10-17T02:43:45.207Z,93.83
2022-10-17T02:44:17.410Z,93.74
2022-10-17T02:44:49.468Z,93.71
2022-10-17T02:45:24.286Z,93.55
2022-10-17T02:45:56.727Z,93.80
2022-10-17T02:46:29.289Z,93.94
2022-10-17T02:47:23.903Z,93.59
2022-10-17T02:48:14.462Z,93.33
2022-10-17T02:48:51.862Z,93.52
2022-10-17T02:49:31.497Z,93.77
2022-10-17T02:50:04.141Z,93.80
2022-10-17T02:50:57.176Z,93.76
2022-10-17T02:51:56.760Z,93.92
2022-10-17T02:52:36.810Z,94.07
2022-10-17T02:53:22.970Z,93.94
2022-10-17T02:54:06.325Z,94.15
2022-10-17T02:54:43.090Z,93.98
2022-10-17T02:55:19.966Z,94.21
2022-10-17T02:56:00.030Z,94.20
2022-10-17T02:56:36.966Z,94.17
2022-10-17T02:57:31.709Z,94.24
2022-10-17T02:58:09.038Z,94.36
2022-10-17T02:58:43.138Z,93.98
2022-10-17T02:59:17.713Z,93.66
2022-10-17T02:59:51.031Z,93.78
2022-10-17T03:00:24.807Z,94.02
2022-10-17T03:00:56.841Z,94.15
2022-10-17T03:01:30.493Z,93.94
2022-10-17T03:02:06.410Z,93.83
2022-10-17T03:02:49.706Z,94.11
2022-10-17T03:03:23.869Z,94.24
2022-10-17T03:04:13.750Z,94.37
2022-10-17T03:04:46.610Z,94.16
2022-10-17T03:05:21.706Z,93.82
2022-10-17T03:05:54.081Z,93.66
2022-10-17T03:06:25.598Z,93.48
2022-10-17T03:06:57.172Z,93.59
2022-10-17T03:07:28.690Z,93.69
2022-10-17T03:08:00.190Z,94.16
2022-10-17T03:08:31.814Z,94.06
2022-10-17T03:09:04.117Z,94.15
2022-10-17T03:09:35.626Z,94.13
2022-10-17T03:10:07.410Z,94.14
2022-10-17T03:10:38.914Z,94.28
2022-10-17T03:11:10.411Z,94.38
2022-10-17T03:11:42.276Z,94.18
2022-10-17T03:12:13.830Z,94.29
2022-10-17T03:12:45.463Z,94.06
2022-10-17T03:13:17.700Z,94.57
2022-10-17T03:13:49.235Z,94.67
2022-10-17T03:14:20.751Z,94.45
2022-10-17T03:14:52.270Z,94.25
2022-10-17T03:15:23.786Z,93.90
2022-10-17T03:15:56.930Z,93.62
2022-10-17T03:16:28.594Z,93.85
2022-10-17T03:17:00.224Z,93.47
2022-10-17T03:17:31.901Z,93.85
2022-10-17T03:18:03.916Z,93.93
2022-10-17T03:18:35.438Z,93.70
2022-10-17T03:19:07.779Z,93.59
2022-10-17T03:19:39.271Z,93.90
2022-10-17T03:20:11.147Z,94.06
2022-10-17T03:20:42.710Z,94.02
2022-10-17T03:21:14.227Z,93.88
2022-10-17T03:21:45.731Z,93.69
2022-10-17T03:22:17.232Z,93.91
2022-10-17T03:22:48.762Z,93.75
2022-10-17T03:23:20.272Z,93.69
2022-10-17T03:23:51.818Z,93.70
2022-10-17T03:24:23.369Z,94.07
2022-10-17T03:24:54.896Z,94.15
2022-10-17T03:25:26.454Z,94.08
2022-10-17T03:25:57.951Z,94.12
2022-10-17T03:26:29.728Z,94.09
2022-10-17T03:27:01.262Z,94.03
2022-10-17T03:27:33.118Z,93.98
2022-10-17T03:28:05.580Z,93.94
2022-10-17T03:28:37.295Z,93.86
2022-10-17T03:29:08.893Z,93.91
2022-10-17T03:29:40.462Z,94.11
2022-10-17T03:30:12.164Z,94.15
2022-10-17T03:30:43.671Z,94.22
2022-10-17T03:31:17.370Z,94.33
2022-10-17T03:31:48.862Z,94.45
2022-10-17T03:32:20.430Z,94.41
2022-10-17T03:32:51.931Z,94.32
2022-10-17T03:33:23.458Z,94.09
2022-10-17T03:33:55.054Z,94.06
2022-10-17T03:34:28.089Z,94.01
2022-10-17T03:34:59.618Z,93.97
2022-10-17T03:35:31.114Z,93.97
2022-10-17T03:36:10.538Z,94.17
2022-10-17T03:36:42.098Z,94.24
2022-10-17T03:37:13.615Z,94.16
2022-10-17T03:37:45.193Z,94.06
2022-10-17T03:38:16.707Z,93.86
2022-10-17T03:38:48.483Z,94.00
2022-10-17T03:39:20.061Z,93.91
2022-10-17T03:39:51.578Z,94.09
2022-10-17T03:40:23.128Z,93.90
2022-10-17T03:40:56.118Z,93.93
2022-10-17T03:41:27.633Z,94.01
2022-10-17T03:41:59.177Z,94.12
2022-10-17T03:42:31.991Z,93.70
2022-10-17T03:43:03.536Z,94.10
2022-10-17T03:43:35.315Z,94.07
2022-10-17T03:44:06.849Z,93.78
2022-10-17T03:44:38.380Z,93.63
2022-10-17T03:45:10.118Z,93.88
2022-10-17T03:45:41.624Z,93.77
2022-10-17T03:46:13.218Z,93.74
2022-10-17T03:46:44.792Z,93.71
2022-10-17T03:47:16.321Z,93.44
2022-10-17T03:47:47.835Z,93.49
2022-10-17T03:48:19.353Z,93.47
2022-10-17T03:48:50.856Z,93.64
2022-10-17T03:49:22.390Z,93.68
2022-10-17T03:49:54.443Z,93.52
2022-10-17T03:50:26.037Z,93.42
2022-10-17T03:51:02.519Z,93.56
2022-10-17T03:51:35.186Z,93.69
2022-10-17T03:52:06.694Z,94.13
2022-10-17T03:52:38.204Z,94.52
2022-10-17T03:53:09.729Z,94.43
2022-10-17T03:53:41.261Z,94.10
2022-10-17T03:54:12.781Z,94.07
2022-10-17T03:54:44.304Z,94.36
2022-10-17T03:55:16.127Z,94.28
2022-10-17T03:55:47.634Z,94.26
2022-10-17T03:56:24.709Z,94.45
2022-10-17T03:57:28.984Z,94.77
2022-10-17T03:58:00.771Z,94.18
2022-10-17T03:58:32.334Z,94.23
2022-10-17T03:59:04.147Z,94.18
2022-10-17T03:59:35.637Z,94.04
2022-10-17T04:00:07.905Z,93.94
2022-10-17T04:00:39.415Z,93.97
2022-10-17T04:01:13.085Z,93.84
2022-10-17T04:01:44.802Z,93.88
2022-10-17T04:02:16.353Z,93.85
2022-10-17T04:02:47.863Z,93.90
2022-10-17T04:03:19.431Z,93.62
2022-10-17T04:03:52.991Z,93.44
2022-10-17T04:04:24.623Z,93.50
2022-10-17T04:04:56.127Z,93.56
2022-10-17T04:05:27.943Z,93.67
2022-10-17T04:06:01.018Z,94.03
2022-10-17T04:06:32.588Z,94.11
2022-10-17T04:07:04.095Z,94.01
2022-10-17T04:07:37.297Z,93.85
2022-10-17T04:08:09.404Z,93.70
2022-10-17T04:08:42.682Z,93.99
2022-10-17T04:09:14.261Z,94.36
2022-10-17T04:09:45.784Z,94.39
2022-10-17T04:10:17.427Z,94.29
2022-10-17T04:10:48.974Z,94.22
2022-10-17T04:11:21.832Z,94.33
2022-10-17T04:11:53.479Z,94.30
2022-10-17T04:12:25.019Z,94.23
2022-10-17T04:12:56.598Z,94.07
2022-10-17T04:13:28.407Z,94.26
2022-10-17T04:14:00.151Z,94.13
2022-10-17T04:14:31.666Z,94.16
2022-10-17T04:15:03.690Z,94.29
2022-10-17T04:15:35.194Z,94.41
2022-10-17T04:16:12.347Z,94.44
2022-10-17T04:16:43.847Z,94.23
2022-10-17T04:17:15.407Z,94.21
2022-10-17T04:17:48.579Z,94.38
2022-10-17T04:18:20.242Z,93.84
2022-10-17T04:18:56.534Z,93.83
2022-10-17T04:19:28.059Z,94.10
2022-10-17T04:19:59.639Z,94.08
2022-10-17T04:20:31.447Z,93.74
2022-10-17T04:21:04.296Z,93.57
2022-10-17T04:21:35.846Z,93.52
2022-10-17T04:22:08.491Z,93.45
2022-10-17T04:22:40.060Z,93.59
2022-10-17T04:23:11.564Z,93.32
2022-10-17T04:23:43.083Z,93.35
2022-10-17T04:24:14.790Z,93.60
2022-10-17T04:24:46.295Z,93.50
2022-10-17T04:25:17.834Z,93.55
2022-10-17T04:25:49.414Z,94.07
2022-10-17T04:26:21.143Z,94.03
2022-10-17T04:26:52.835Z,94.00
2022-10-17T04:27:24.580Z,93.83
2022-10-17T04:27:56.094Z,93.71
2022-10-17T04:28:28.169Z,93.66
2022-10-17T04:28:59.785Z,94.04
2022-10-17T04:29:31.303Z,94.11
2022-10-17T04:30:02.919Z,94.39
2022-10-17T04:30:34.511Z,94.72
2022-10-17T04:31:08.240Z,94.63
2022-10-17T04:31:39.767Z,94.54
2022-10-17T04:32:11.302Z,94.42
2022-10-17T04:32:42.919Z,94.27
2022-10-17T04:33:14.413Z,94.06
2022-10-17T04:33:50.272Z,94.16
2022-10-17T04:34:21.991Z,94.21
2022-10-17T04:34:53.491Z,94.23
2022-10-17T04:35:25.005Z,94.11
2022-10-17T04:36:04.924Z,93.95
2022-10-17T04:36:36.431Z,94.13
2022-10-17T04:37:07.942Z,94.17
2022-10-17T04:37:39.567Z,93.26
2022-10-17T04:38:11.094Z,93.77
2022-10-17T04:38:42.780Z,93.16
2022-10-17T04:39:50.726Z,93.56
2022-10-17T04:40:22.359Z,93.39
2022-10-17T04:40:53.956Z,93.47
2022-10-17T04:41:26.039Z,93.72
2022-10-17T04:41:57.587Z,93.75
2022-10-17T04:42:29.708Z,93.82
2022-10-17T04:43:01.523Z,94.17
2022-10-17T04:43:34.894Z,94.08
2022-10-17T04:44:06.466Z,93.95
2022-10-17T04:44:38.044Z,94.09
2022-10-17T04:45:10.215Z,93.69
2022-10-17T04:45:41.748Z,93.67
2022-10-17T04:46:14.911Z,93.34
2022-10-17T04:46:46.519Z,93.65
2022-10-17T04:47:18.197Z,93.89
2022-10-17T04:47:49.710Z,94.20
2022-10-17T04:48:21.233Z,94.02
2022-10-17T04:48:53.912Z,93.40
2022-10-17T04:49:25.412Z,93.65
2022-10-17T04:49:56.933Z,93.99
2022-10-17T04:50:28.463Z,93.72
2022-10-17T04:51:06.104Z,93.59
2022-10-17T04:51:38.295Z,93.46
2022-10-17T04:52:09.831Z,93.45
2022-10-17T04:52:41.325Z,93.80
2022-10-17T04:53:12.900Z,94.03
2022-10-17T04:53:45.062Z,93.81
2022-10-17T04:54:16.635Z,93.62
2022-10-17T04:54:48.142Z,93.58
2022-10-17T04:55:19.656Z,93.60
2022-10-17T04:55:51.540Z,94.03
2022-10-17T04:56:24.731Z,94.50
2022-10-17T04:56:56.253Z,94.84
2022-10-17T04:57:27.815Z,94.51
2022-10-17T04:57:59.374Z,93.93
2022-10-17T04:58:30.883Z,93.85
2022-10-17T04:59:02.409Z,93.76
2022-10-17T04:59:33.957Z,93.76
2022-10-17T05:00:06.017Z,93.71
2022-10-17T05:00:37.605Z,94.13
2022-10-17T05:01:14.431Z,94.18
2022-10-17T05:01:46.004Z,93.80
2022-10-17T05:02:17.526Z,93.82
2022-10-17T05:02:49.088Z,93.72
2022-10-17T05:03:20.608Z,93.65
2022-10-17T05:03:52.818Z,93.54
2022-10-17T05:04:25.357Z,93.47
2022-10-17T05:04:56.920Z,93.62
2022-10-17T05:05:28.535Z,93.64
2022-10-17T05:06:04.292Z,93.72
2022-10-17T05:06:37.884Z,93.73
2022-10-17T05:07:09.423Z,93.93
2022-10-17T05:07:41.276Z,94.02
2022-10-17T05:08:13.141Z,94.18
2022-10-17T05:08:45.126Z,94.20
2022-10-17T05:09:16.626Z,94.13
2022-10-17T05:09:48.148Z,93.87
2022-10-17T05:10:19.708Z,93.94
2022-10-17T05:10:51.264Z,94.07
2022-10-17T05:11:25.209Z,94.23
2022-10-17T05:11:56.714Z,94.12
2022-10-17T05:12:28.398Z,93.49
2022-10-17T05:13:00.108Z,93.41
2022-10-17T05:13:32.679Z,93.37
2022-10-17T05:14:04.195Z,93.07
2022-10-17T05:14:35.689Z,93.08
2022-10-17T05:15:08.087Z,93.42
2022-10-17T05:15:40.136Z,93.45
2022-10-17T05:16:11.685Z,93.21
2022-10-17T05:16:43.186Z,92.98
2022-10-17T05:17:14.697Z,93.30
2022-10-17T05:17:46.229Z,93.72
2022-10-17T05:18:17.754Z,94.20
2022-10-17T05:18:53.015Z,94.58
2022-10-17T05:19:24.786Z,94.18
2022-10-17T05:19:56.291Z,94.12
2022-10-17T05:20:28.979Z,93.88
2022-10-17T05:21:00.490Z,93.41
2022-10-17T05:22:04.529Z,93.73
2022-10-17T05:22:38.345Z,93.67
2022-10-17T05:23:12.780Z,93.82
2022-10-17T05:23:44.318Z,93.74
2022-10-17T05:24:16.500Z,94.02
2022-10-17T05:24:48.029Z,93.49
2022-10-17T05:25:20.290Z,92.91
2022-10-17T05:25:55.856Z,93.08
2022-10-17T05:26:27.415Z,93.17
2022-10-17T05:26:59.010Z,93.56
2022-10-17T05:27:30.535Z,93.74
2022-10-17T05:28:02.049Z,94.14
2022-10-17T05:28:34.958Z,93.95
2022-10-17T05:29:06.816Z,94.22
2022-10-17T05:29:39.117Z,94.48
2022-10-17T05:30:10.865Z,94.53
2022-10-17T05:30:42.375Z,94.47
2022-10-17T05:31:14.038Z,94.83
2022-10-17T05:31:45.583Z,94.82
2022-10-17T05:32:17.127Z,95.25
2022-10-17T05:32:51.533Z,95.03
2022-10-17T05:33:23.562Z,94.86
2022-10-17T05:33:55.388Z,94.66
2022-10-17T05:34:27.053Z,94.29
2022-10-17T05:34:58.576Z,94.16
2022-10-17T05:35:30.089Z,94.29
2022-10-17T05:36:01.933Z,94.81
2022-10-17T05:36:33.467Z,94.85
2022-10-17T05:37:04.973Z,94.58
2022-10-17T05:37:36.598Z,94.50
2022-10-17T05:38:08.153Z,94.20
2022-10-17T05:38:39.663Z,94.17
2022-10-17T05:39:14.038Z,93.91
2022-10-17T05:39:50.564Z,94.09
2022-10-17T05:40:23.122Z,94.34
2022-10-17T05:40:59.174Z,94.36
2022-10-17T05:41:30.676Z,94.09
2022-10-17T05:42:02.296Z,94.03
2022-10-17T05:42:34.101Z,94.07
2022-10-17T05:43:05.836Z,94.25
2022-10-17T05:43:37.430Z,94.23
2022-10-17T05:44:08.931Z,94.57
2022-10-17T05:44:41.454Z,94.65
2022-10-17T05:45:13.191Z,95.09
2022-10-17T05:45:44.758Z,94.89
2022-10-17T05:46:16.315Z,94.51
2022-10-17T05:46:50.778Z,94.37
2022-10-17T05:47:22.356Z,94.39
2022-10-17T05:47:53.866Z,94.30
2022-10-17T05:48:25.529Z,93.95
2022-10-17T05:48:57.090Z,93.64
2022-10-17T05:49:40.032Z,93.69
2022-10-17T05:50:16.590Z,93.76
2022-10-17T05:50:48.839Z,94.05
2022-10-17T05:51:20.498Z,93.84
2022-10-17T05:51:52.022Z,93.63
2022-10-17T05:52:23.555Z,93.86
2022-10-17T05:52:55.860Z,93.97
2022-10-17T05:53:31.196Z,94.27
2022-10-17T05:54:06.474Z,94.24
2022-10-17T05:54:38.072Z,94.00
2022-10-17T05:55:10.035Z,93.99
2022-10-17T05:55:41.842Z,94.10
2022-10-17T05:56:14.426Z,94.24
2022-10-17T05:56:45.962Z,94.41
2022-10-17T05:57:17.738Z,94.32
2022-10-17T05:57:50.535Z,94.21
2022-10-17T05:58:32.433Z,94.11
2022-10-17T05:59:10.187Z,93.86
2022-10-17T05:59:41.716Z,93.65
2022-10-17T06:00:14.070Z,93.85
2022-10-17T06:01:18.186Z,94.14
2022-10-17T06:01:49.802Z,94.05
2022-10-17T06:02:21.932Z,94.34
2022-10-17T06:02:53.592Z,93.85
2022-10-17T06:03:25.128Z,93.65
2022-10-17T06:03:56.682Z,93.69
2022-10-17T06:04:28.769Z,93.60
2022-10-17T06:05:00.284Z,93.42
2022-10-17T06:05:31.861Z,93.17
2022-10-17T06:06:08.844Z,92.88
2022-10-17T06:06:40.523Z,92.70
2022-10-17T06:07:12.981Z,92.47
2022-10-17T06:07:44.504Z,92.84
2022-10-17T06:08:16.939Z,92.91
2022-10-17T06:08:48.443Z,92.74
2022-10-17T06:09:20.051Z,92.63
2022-10-17T06:09:51.601Z,92.48
2022-10-17T06:10:23.170Z,92.53
2022-10-17T06:10:54.740Z,92.15
2022-10-17T06:11:26.419Z,91.97
2022-10-17T06:11:57.931Z,91.87
2022-10-17T06:12:29.656Z,91.74
2022-10-17T06:13:01.477Z,91.58
2022-10-17T06:13:33.117Z,91.49
2022-10-17T06:14:04.666Z,91.29
2022-10-17T06:14:36.200Z,91.09
2022-10-17T06:15:08.554Z,91.18
2022-10-17T06:15:40.106Z,90.35
2022-10-17T06:16:11.800Z,91.24
2022-10-17T06:16:43.730Z,91.50
2022-10-17T06:17:16.349Z,91.06
2022-10-17T06:17:48.147Z,91.08
2022-10-17T06:18:19.689Z,90.94
2022-10-17T06:18:51.360Z,90.85
2022-10-17T06:19:22.970Z,90.59
2022-10-17T06:19:54.492Z,91.02
2022-10-17T06:20:26.043Z,91.22
2022-10-17T06:21:25.259Z,90.81
2022-10-17T06:21:56.794Z,90.37
2022-10-17T06:22:28.639Z,90.24
2022-10-17T06:23:00.382Z,90.01
2022-10-17T06:23:32.019Z,89.48
2022-10-17T06:24:03.737Z,90.09
2022-10-17T06:24:35.249Z,90.51
2022-10-17T06:25:07.139Z,90.25
2022-10-17T06:25:38.733Z,90.28
2022-10-17T06:26:10.653Z,89.77
2022-10-17T06:26:42.528Z,89.23
2022-10-17T06:27:14.060Z,88.79
2022-10-17T06:27:45.595Z,88.47
2022-10-17T06:28:17.179Z,87.75
2022-10-17T06:28:48.810Z,88.23
2022-10-17T06:29:20.519Z,88.18
2022-10-17T06:29:52.150Z,88.15
2022-10-17T06:30:23.865Z,87.98
2022-10-17T06:30:55.557Z,87.94
2022-10-17T06:31:27.099Z,86.30
2022-10-17T06:31:58.609Z,86.73
2022-10-17T06:32:30.583Z,86.79
2022-10-17T06:33:02.253Z,86.37
2022-10-17T06:33:34.473Z,85.99
2022-10-17T06:34:05.991Z,86.10
2022-10-17T06:34:37.502Z,85.76
2022-10-17T06:35:09.201Z,85.48
2022-10-17T06:35:40.711Z,85.14
2022-10-17T06:36:13.989Z,85.31
2022-10-17T06:36:45.696Z,86.52
2022-10-17T06:37:17.275Z,86.96
2022-10-17T06:37:48.811Z,85.54
2022-10-17T06:38:20.648Z,85.00
2022-10-17T06:38:52.252Z,84.60
2022-10-17T06:39:26.788Z,83.86
2022-10-17T06:39:58.399Z,83.37
2022-10-17T06:40:30.292Z,82.94
2022-10-17T06:41:13.378Z,83.06
2022-10-17T06:41:45.024Z,83.62
2022-10-17T06:42:16.975Z,83.53
2022-10-17T06:42:48.654Z,83.37
2022-10-17T06:43:25.593Z,84.11
2022-10-17T06:43:59.418Z,83.46
2022-10-17T06:44:31.957Z,83.00
2022-10-17T06:45:03.955Z,82.37
2022-10-17T06:45:35.477Z,82.72
2022-10-17T06:46:07.113Z,83.16
2022-10-17T06:46:39.983Z,82.18
2022-10-17T06:47:13.432Z,81.90
2022-10-17T06:47:46.922Z,81.92
2022-10-17T06:48:18.443Z,80.50
2022-10-17T06:48:50.074Z,78.98
2022-10-17T06:49:21.605Z,77.90
2022-10-17T06:49:53.142Z,76.04
2022-10-17T06:50:24.662Z,74.53
2022-10-17T06:51:00.639Z,73.25
2022-10-17T06:51:35.923Z,72.58
2022-10-17T06:52:07.474Z,72.03
2022-10-17T06:52:39.607Z,70.40
2022-10-17T06:53:11.565Z,70.18
2022-10-17T06:53:43.120Z,70.06
2022-10-17T06:54:14.812Z,69.47
2022-10-17T06:54:46.358Z,68.01
2022-10-17T06:55:21.418Z,67.77
2022-10-17T06:55:55.397Z,67.47
2022-10-17T06:56:27.067Z,66.62
2022-10-17T06:56:58.791Z,66.76
2022-10-17T06:57:30.682Z,67.00
2022-10-17T06:58:02.576Z,67.67
2022-10-17T06:58:39.141Z,65.88
2022-10-17T06:59:11.018Z,65.00
2022-10-17T06:59:42.576Z,63.79
2022-10-17T07:00:14.240Z,63.30
2022-10-17T07:00:45.848Z,62.58
2022-10-17T07:01:17.695Z,62.27
2022-10-17T07:01:49.306Z,61.48
2022-10-17T07:02:21.195Z,60.91
2022-10-17T07:02:52.843Z,59.38
2022-10-17T07:03:24.440Z,58.20
2022-10-17T07:03:55.987Z,56.57
2022-10-17T07:04:27.849Z,55.54
2022-10-17T07:04:59.368Z,53.54
2022-10-17T07:05:30.901Z,52.26
2022-10-17T07:06:03.319Z,51.67
2022-10-17T07:06:34.975Z,51.55
2022-10-17T07:07:06.573Z,50.80
2022-10-17T07:07:40.199Z,49.06
2022-10-17T07:08:14.694Z,48.47
2022-10-17T07:08:46.573Z,49.01
2022-10-17T07:09:18.199Z,47.90
2022-10-17T07:09:51.648Z,47.71
2022-10-17T07:10:23.338Z,49.13
2022-10-17T07:10:55.403Z,50.01
2022-10-17T07:11:26.952Z,50.89
2022-10-17T07:11:59.160Z,53.49
2022-10-17T07:12:30.675Z,56.52
2022-10-17T07:13:02.199Z,57.88
2022-10-17T07:13:38.833Z,59.42
2022-10-17T07:14:10.775Z,62.17
2022-10-17T07:14:42.469Z,63.17
2022-10-17T07:15:13.985Z,64.36
2022-10-17T07:15:46.137Z,64.38
2022-10-17T07:16:17.917Z,65.34
2022-10-17T07:16:49.965Z,63.63
2022-10-17T07:17:21.654Z,62.87
2022-10-17T07:17:53.209Z,63.93
2022-10-17T07:18:24.737Z,63.93
2022-10-17T07:18:56.444Z,64.58
2022-10-17T07:19:28.062Z,64.59
2022-10-17T07:19:59.571Z,64.98
2022-10-17T07:20:31.339Z,65.45
2022-10-17T07:21:04.032Z,65.88
2022-10-17T07:21:38.950Z,65.11
2022-10-17T07:22:11.694Z,65.75
2022-10-17T07:22:43.270Z,66.48
2022-10-17T07:23:14.802Z,68.07
2022-10-17T07:23:46.400Z,67.63
2022-10-17T07:24:18.001Z,67.32
2022-10-17T07:25:26.064Z,65.80
2022-10-17T07:26:02.330Z,64.31
2022-10-17T07:26:34.043Z,64.02
2022-10-17T07:27:05.565Z,63.70
2022-10-17T07:27:37.111Z,63.02
2022-10-17T07:28:08.661Z,63.13
2022-10-17T07:28:42.785Z,61.93